createdAt,value
2018-12-18T00:01:39.165Z,36.87
2018-12-18T00:04:08.257Z,39.87
2018-12-18T00:06:37.090Z,41.97
2018-12-18T00:09:06.902Z,45.03
2018-12-18T00:11:35.848Z,46.93
2018-12-18T00:14:04.676Z,42.10
2018-12-18T00:16:33.955Z,50.50
2018-12-18T00:19:02.884Z,52.67
2018-12-18T00:21:32.017Z,53.00
2018-12-18T00:24:01.220Z,55.20
2018-12-18T00:26:30.149Z,48.10
2018-12-18T00:28:59.327Z,49.13
2018-12-18T00:31:28.223Z,55.70
2018-12-18T00:33:57.008Z,55.17
2018-12-18T00:36:25.924Z,45.73
2018-12-18T00:38:54.866Z,59.67
2018-12-18T00:41:23.801Z,56.47
2018-12-18T00:43:52.745Z,66.10
2018-12-18T00:46:21.671Z,58.37
2018-12-18T00:48:50.613Z,54.07
2018-12-18T00:51:19.459Z,64.43
2018-12-18T00:53:48.381Z,57.57
2018-12-18T00:56:17.341Z,61.63
2018-12-18T00:58:46.213Z,57.00
2018-12-18T01:01:15.036Z,53.17
2018-12-18T01:03:43.863Z,64.60
2018-12-18T01:06:12.766Z,56.27
2018-12-18T01:08:41.740Z,61.00
2018-12-18T01:11:10.646Z,52.90
2018-12-18T01:13:39.479Z,60.33
2018-12-18T01:16:08.304Z,63.07
2018-12-18T01:18:37.142Z,64.40
2018-12-18T01:21:06.560Z,64.67
2018-12-18T01:23:35.892Z,64.90
2018-12-18T01:26:04.869Z,62.93
2018-12-18T01:28:33.773Z,70.90
2018-12-18T01:31:02.725Z,66.37
2018-12-18T01:33:31.721Z,72.17
2018-12-18T01:36:00.669Z,68.83
2018-12-18T01:38:29.749Z,71.37
2018-12-18T01:40:58.630Z,69.80
2018-12-18T01:43:27.571Z,74.73
2018-12-18T01:45:56.489Z,71.77
2018-12-18T01:48:25.317Z,71.00
2018-12-18T01:50:54.670Z,72.30
2018-12-18T01:53:23.469Z,74.33
2018-12-18T01:55:52.276Z,71.60
2018-12-18T01:58:21.197Z,77.13
2018-12-18T02:00:50.017Z,74.87
2018-12-18T02:03:18.933Z,70.70
2018-12-18T02:05:47.896Z,74.90
2018-12-18T02:08:16.870Z,75.03
2018-12-18T02:10:45.729Z,69.23
2018-12-18T02:13:14.633Z,70.10
2018-12-18T02:15:43.506Z,62.27
2018-12-18T02:18:12.332Z,69.43
2018-12-18T02:20:41.253Z,70.27
2018-12-18T02:23:10.120Z,67.00
2018-12-18T02:25:38.932Z,63.10
2018-12-18T02:28:07.869Z,73.80
2018-12-18T02:30:36.731Z,67.10
2018-12-18T02:33:05.569Z,63.33
2018-12-18T02:35:34.512Z,70.97
2018-12-18T02:38:04.141Z,63.00
2018-12-18T02:40:33.069Z,59.07
2018-12-18T02:43:01.897Z,55.60
2018-12-18T02:45:30.814Z,48.47
2018-12-18T02:47:59.656Z,47.57
2018-12-18T02:50:28.634Z,50.33
2018-12-18T02:52:57.560Z,46.03
2018-12-18T02:55:26.397Z,53.90
2018-12-18T02:57:55.707Z,48.60
2018-12-18T03:00:24.642Z,52.90
2018-12-18T03:02:53.438Z,60.33
2018-12-18T03:05:22.389Z,64.23
2018-12-18T03:07:51.313Z,65.13
2018-12-18T03:10:20.133Z,62.57
2018-12-18T03:12:49.065Z,67.67
2018-12-18T03:15:17.891Z,58.83
2018-12-18T03:17:46.940Z,57.37
2018-12-18T03:20:22.518Z,60.30
2018-12-18T03:22:51.460Z,53.37
2018-12-18T03:25:20.429Z,54.60
2018-12-18T03:27:49.351Z,46.53
2018-12-18T03:30:18.287Z,47.93
2018-12-18T03:32:50.042Z,45.33
2018-12-18T03:35:18.950Z,38.03
2018-12-18T03:37:47.885Z,34.70
2018-12-18T03:40:17.390Z,35.93
2018-12-18T03:42:46.374Z,30.83
2018-12-18T03:45:15.396Z,29.73
2018-12-18T03:47:44.372Z,29.50
2018-12-18T03:50:13.292Z,26.83
2018-12-18T03:52:42.214Z,24.63
2018-12-18T03:55:11.034Z,26.93
2018-12-18T03:57:40.489Z,26.50
2018-12-18T04:00:11.178Z,25.90
2018-12-18T04:02:40.154Z,32.43
2018-12-18T04:05:09.575Z,30.43
2018-12-18T04:07:38.628Z,34.43
2018-12-18T04:10:07.919Z,39.53
2018-12-18T04:12:37.888Z,39.00
2018-12-18T04:15:07.277Z,41.67
2018-12-18T04:17:36.359Z,39.77
2018-12-18T04:20:05.411Z,45.37
2018-12-18T04:22:34.353Z,46.10
2018-12-18T04:25:03.997Z,46.50
2018-12-18T04:27:33.889Z,48.87
2018-12-18T04:30:04.196Z,45.50
2018-12-18T04:32:34.230Z,45.57
2018-12-18T04:35:04.882Z,50.30
2018-12-18T04:37:34.838Z,53.93
2018-12-18T04:40:05.481Z,44.33
2018-12-18T04:42:35.181Z,44.20
2018-12-18T04:45:04.327Z,46.03
2018-12-18T04:47:33.315Z,43.60
2018-12-18T04:50:02.120Z,46.83
2018-12-18T04:52:31.066Z,45.20
2018-12-18T04:55:00.100Z,44.00
2018-12-18T04:57:29.124Z,45.47
2018-12-18T04:59:58.218Z,45.17
2018-12-18T05:02:27.118Z,44.20
2018-12-18T05:04:55.941Z,39.20
2018-12-18T05:07:24.826Z,39.70
2018-12-18T05:09:53.709Z,43.70
2018-12-18T05:12:22.640Z,40.20
2018-12-18T05:14:51.509Z,38.40
2018-12-18T05:17:20.458Z,36.67
2018-12-18T05:19:49.509Z,40.50
2018-12-18T05:22:18.549Z,38.83
2018-12-18T05:24:47.404Z,41.67
2018-12-18T05:27:16.333Z,39.90
2018-12-18T05:29:45.178Z,43.53
2018-12-18T05:32:14.366Z,41.87
2018-12-18T05:34:43.195Z,44.70
2018-12-18T05:37:12.279Z,45.17
2018-12-18T05:39:41.275Z,43.03
2018-12-18T05:42:10.208Z,42.17
2018-12-18T05:44:39.004Z,33.13
2018-12-18T05:47:07.938Z,36.10
2018-12-18T05:49:36.800Z,31.57
2018-12-18T05:52:06.097Z,28.30
2018-12-18T05:54:35.182Z,32.70
2018-12-18T05:57:03.994Z,31.53
2018-12-18T05:59:33.017Z,33.63
2018-12-18T06:02:01.821Z,32.07
2018-12-18T06:04:30.763Z,37.97
2018-12-18T06:06:59.680Z,39.40
2018-12-18T06:09:28.528Z,38.57
2018-12-18T06:11:57.345Z,39.60
2018-12-18T06:14:26.308Z,38.87
2018-12-18T06:16:55.215Z,35.87
2018-12-18T06:19:24.041Z,38.53
2018-12-18T06:21:52.995Z,39.43
2018-12-18T06:24:21.989Z,41.50
2018-12-18T06:26:50.946Z,36.93
2018-12-18T06:29:19.850Z,35.90
2018-12-18T06:31:48.806Z,35.43
2018-12-18T06:34:17.656Z,35.40
2018-12-18T06:36:46.506Z,39.50
2018-12-18T06:39:15.474Z,39.20
2018-12-18T06:41:44.375Z,39.13
2018-12-18T06:44:13.181Z,38.03
2018-12-18T06:46:42.864Z,37.47
2018-12-18T06:49:11.685Z,36.63
2018-12-18T06:51:40.683Z,39.27
2018-12-18T06:54:09.644Z,34.47
2018-12-18T06:56:38.465Z,36.27
2018-12-18T06:59:07.333Z,32.67
2018-12-18T07:01:36.161Z,32.17
2018-12-18T07:04:05.217Z,33.03
2018-12-18T07:06:34.085Z,43.17
2018-12-18T07:09:04.461Z,42.47
2018-12-18T07:11:33.468Z,38.57
2018-12-18T07:14:02.307Z,38.43
2018-12-18T07:16:31.357Z,36.27
2018-12-18T07:19:00.325Z,37.60
2018-12-18T07:21:29.181Z,32.87
2018-12-18T07:23:58.108Z,32.40
2018-12-18T07:26:27.145Z,39.73
2018-12-18T07:28:55.945Z,39.40
2018-12-18T07:31:24.901Z,40.50
2018-12-18T07:33:53.728Z,35.93
2018-12-18T07:36:22.530Z,34.57
2018-12-18T07:38:51.425Z,37.77
2018-12-18T07:41:20.350Z,35.53
2018-12-18T07:43:49.283Z,37.13
2018-12-18T07:46:18.786Z,31.63
2018-12-18T07:48:47.798Z,33.80
2018-12-18T07:51:16.612Z,36.83
2018-12-18T07:53:45.433Z,33.07
2018-12-18T07:56:14.461Z,36.13
2018-12-18T07:58:43.397Z,36.80
2018-12-18T08:01:12.459Z,35.53
2018-12-18T08:03:41.297Z,34.07
2018-12-18T08:06:10.259Z,36.17
2018-12-18T08:08:39.192Z,40.97
2018-12-18T08:11:08.014Z,38.97
2018-12-18T08:13:37.050Z,38.87
2018-12-18T08:16:05.968Z,36.17
2018-12-18T08:18:34.913Z,37.80
2018-12-18T08:21:03.891Z,40.80
2018-12-18T08:23:32.716Z,34.03
2018-12-18T08:26:01.532Z,32.17
2018-12-18T08:28:30.584Z,28.20
2018-12-18T08:30:59.455Z,30.70
2018-12-18T08:33:28.362Z,34.13
2018-12-18T08:35:57.378Z,31.80
2018-12-18T08:38:26.197Z,32.20
2018-12-18T08:40:55.016Z,35.20
2018-12-18T08:43:23.961Z,36.80
2018-12-18T08:45:52.806Z,27.73
2018-12-18T08:48:21.867Z,29.87
2018-12-18T08:50:51.199Z,30.00
2018-12-18T08:53:20.013Z,33.07
2018-12-18T08:55:48.981Z,29.43
2018-12-18T08:58:18.013Z,28.10
2018-12-18T09:00:46.991Z,25.50
2018-12-18T09:03:15.966Z,26.03
2018-12-18T09:05:44.978Z,26.07
2018-12-18T09:08:13.999Z,26.63
2018-12-18T09:10:42.875Z,31.60
2018-12-18T09:13:11.793Z,32.00
2018-12-18T09:15:46.417Z,24.97
2018-12-18T09:18:15.411Z,30.47
2018-12-18T09:20:44.391Z,25.33
2018-12-18T09:23:13.448Z,28.10
2018-12-18T09:25:42.506Z,29.33
2018-12-18T09:28:11.408Z,27.13
2018-12-18T09:30:42.708Z,29.43
2018-12-18T09:33:11.911Z,29.43
2018-12-18T09:35:41.051Z,27.13
2018-12-18T09:38:15.581Z,29.63
2018-12-18T09:40:50.201Z,32.70
2018-12-18T09:43:24.703Z,34.93
2018-12-18T09:45:53.641Z,34.00
2018-12-18T09:48:22.565Z,31.60
2018-12-18T09:50:51.472Z,34.27
2018-12-18T09:53:20.389Z,30.47
2018-12-18T09:55:49.508Z,32.23
2018-12-18T09:58:18.508Z,38.30
2018-12-18T10:00:47.582Z,32.37
2018-12-18T10:03:16.476Z,31.27
2018-12-18T10:05:45.540Z,28.27
2018-12-18T10:08:14.518Z,32.80
2018-12-18T10:10:43.555Z,29.80
2018-12-18T10:13:12.804Z,32.70
2018-12-18T10:15:41.924Z,34.13
2018-12-18T10:18:10.764Z,25.20
2018-12-18T10:20:39.927Z,25.97
2018-12-18T10:23:08.832Z,29.37
2018-12-18T10:25:37.665Z,37.07
2018-12-18T10:28:06.749Z,35.10
2018-12-18T10:30:35.652Z,28.77
2018-12-18T10:33:06.156Z,28.70
2018-12-18T10:35:36.646Z,33.50
2018-12-18T10:38:05.769Z,26.53
2018-12-18T10:40:34.672Z,26.07
2018-12-18T10:43:03.709Z,26.50
2018-12-18T10:45:34.134Z,29.33
2018-12-18T10:48:03.056Z,29.00
2018-12-18T10:50:32.022Z,24.67
2018-12-18T10:53:00.940Z,34.73
2018-12-18T10:55:29.808Z,32.43
2018-12-18T10:57:58.717Z,33.87
2018-12-18T11:00:33.028Z,33.33
2018-12-18T11:03:01.930Z,33.77
2018-12-18T11:05:30.959Z,29.43
2018-12-18T11:07:59.817Z,23.83
2018-12-18T11:10:28.740Z,22.97
2018-12-18T11:13:03.146Z,25.70
2018-12-18T11:15:32.114Z,27.93
2018-12-18T11:18:00.937Z,28.53
2018-12-18T11:20:29.867Z,29.40
2018-12-18T11:22:58.700Z,27.83
2018-12-18T11:25:27.681Z,22.10
2018-12-18T11:27:56.513Z,23.03
2018-12-18T11:30:25.341Z,24.73
2018-12-18T11:32:54.281Z,22.00
2018-12-18T11:35:23.230Z,26.13
2018-12-18T11:37:52.200Z,26.27
2018-12-18T11:40:21.145Z,21.23
2018-12-18T11:42:50.148Z,20.97
2018-12-18T11:45:18.972Z,24.10
2018-12-18T11:47:47.891Z,22.60
2018-12-18T11:50:16.823Z,21.50
2018-12-18T11:52:45.952Z,23.23
2018-12-18T11:55:14.766Z,24.90
2018-12-18T11:57:43.604Z,19.23
2018-12-18T12:00:15.444Z,23.87
2018-12-18T12:02:44.533Z,21.37
2018-12-18T12:05:13.373Z,26.70
2018-12-18T12:07:42.287Z,21.77
2018-12-18T12:10:11.329Z,21.50
2018-12-18T12:12:44.094Z,24.13
2018-12-18T12:15:13.541Z,25.13
2018-12-18T12:17:42.555Z,25.03
2018-12-18T12:20:11.501Z,27.20
2018-12-18T12:22:40.620Z,24.50
2018-12-18T12:25:09.609Z,20.27
2018-12-18T12:27:44.818Z,21.53
2018-12-18T12:30:13.808Z,23.87
2018-12-18T12:32:42.724Z,19.70
2018-12-18T12:35:11.725Z,21.13
2018-12-18T12:37:40.861Z,36.87
2018-12-18T12:40:10.205Z,36.17
2018-12-18T12:42:39.104Z,41.40
2018-12-18T12:45:08.154Z,26.43
2018-12-18T12:47:37.381Z,21.13
2018-12-18T12:50:06.644Z,19.97
2018-12-18T12:52:35.740Z,18.37
2018-12-18T12:55:05.221Z,17.53
2018-12-18T12:57:34.134Z,21.10
2018-12-18T13:00:03.410Z,21.40
2018-12-18T13:02:32.333Z,19.67
2018-12-18T13:05:01.270Z,22.10
2018-12-18T13:07:30.294Z,19.20
2018-12-18T13:09:59.164Z,22.40
2018-12-18T13:12:29.445Z,19.37
2018-12-18T13:14:58.684Z,22.77
2018-12-18T13:17:27.628Z,23.07
2018-12-18T13:19:57.605Z,30.80
2018-12-18T13:22:26.572Z,23.87
2018-12-18T13:24:55.721Z,20.13
2018-12-18T13:27:24.949Z,20.47
2018-12-18T13:29:53.947Z,24.37
2018-12-18T13:32:23.045Z,21.47
2018-12-18T13:34:52.130Z,20.43
2018-12-18T13:37:21.162Z,20.90
2018-12-18T13:39:50.213Z,19.50
2018-12-18T13:42:19.156Z,22.13
2018-12-18T13:44:48.472Z,20.83
2018-12-18T13:47:17.774Z,17.97
2018-12-18T13:49:49.560Z,20.80
2018-12-18T13:52:18.805Z,24.33
2018-12-18T13:54:47.837Z,23.83
2018-12-18T13:57:16.944Z,24.03
2018-12-18T13:59:46.149Z,24.47
2018-12-18T14:02:15.570Z,24.53
2018-12-18T14:04:44.563Z,24.83
2018-12-18T14:07:14.360Z,22.90
2018-12-18T14:09:43.245Z,23.33
2018-12-18T14:12:12.256Z,27.17
2018-12-18T14:14:41.393Z,28.23
2018-12-18T14:17:10.320Z,29.57
2018-12-18T14:19:39.188Z,27.70
2018-12-18T14:22:08.816Z,29.30
2018-12-18T14:24:38.103Z,28.67
2018-12-18T14:27:07.134Z,32.17
2018-12-18T14:29:36.149Z,35.57
2018-12-18T14:32:05.924Z,35.23
2018-12-18T14:34:34.773Z,30.33
2018-12-18T14:37:04.028Z,31.37
2018-12-18T14:39:33.264Z,28.57
2018-12-18T14:42:02.727Z,34.13
2018-12-18T14:44:31.837Z,28.70
2018-12-18T14:47:00.644Z,31.97
2018-12-18T14:49:29.833Z,31.77
2018-12-18T14:51:58.756Z,34.57
2018-12-18T14:54:28.600Z,31.97
2018-12-18T14:56:57.920Z,30.67
2018-12-18T14:59:27.026Z,32.93
2018-12-18T15:01:56.590Z,32.47
2018-12-18T15:04:25.663Z,31.30
2018-12-18T15:06:54.789Z,34.60
2018-12-18T15:09:23.825Z,38.30
2018-12-18T15:11:52.749Z,30.03
2018-12-18T15:14:21.798Z,35.57
2018-12-18T15:16:51.155Z,34.70
2018-12-18T15:19:20.185Z,42.90
2018-12-18T15:21:49.233Z,35.47
2018-12-18T15:24:18.235Z,38.00
2018-12-18T15:26:47.423Z,33.20
2018-12-18T15:29:17.078Z,34.03
2018-12-18T15:31:45.909Z,35.17
2018-12-18T15:34:15.207Z,34.50
2018-12-18T15:36:44.318Z,38.07
2018-12-18T15:39:13.345Z,38.13
2018-12-18T15:41:42.760Z,32.77
2018-12-18T15:44:12.513Z,34.23
2018-12-18T15:46:41.781Z,31.77
2018-12-18T15:49:10.716Z,34.37
2018-12-18T15:51:39.746Z,33.83
2018-12-18T15:54:08.686Z,30.57
2018-12-18T15:56:38.125Z,33.73
2018-12-18T15:59:07.743Z,35.40
2018-12-18T16:01:36.981Z,35.73
2018-12-18T16:04:07.207Z,41.17
2018-12-18T16:06:43.940Z,40.80
2018-12-18T16:09:20.949Z,34.40
2018-12-18T16:11:49.853Z,38.67
2018-12-18T16:14:18.775Z,33.30
2018-12-18T16:16:47.978Z,38.27
2018-12-18T16:19:17.789Z,37.07
2018-12-18T16:21:47.029Z,38.53
2018-12-18T16:24:16.252Z,44.37
2018-12-18T16:26:45.287Z,40.27
2018-12-18T16:29:14.198Z,44.50
2018-12-18T16:31:43.805Z,41.67
2018-12-18T16:34:12.864Z,43.93
2018-12-18T16:36:42.141Z,42.63
2018-12-18T16:39:11.259Z,39.07
2018-12-18T16:41:40.255Z,42.67
2018-12-18T16:44:09.155Z,44.80
2018-12-18T16:46:38.109Z,39.33
2018-12-18T16:49:10.091Z,39.13
2018-12-18T16:51:39.519Z,37.53
2018-12-18T16:54:08.575Z,40.33
2018-12-18T16:56:37.857Z,38.50
2018-12-18T16:59:07.077Z,40.83
2018-12-18T17:01:36.669Z,41.70
2018-12-18T17:04:09.176Z,42.43
2018-12-18T17:06:38.213Z,39.77
2018-12-18T17:09:07.253Z,47.40
2018-12-18T17:11:36.168Z,41.10
2018-12-18T17:14:04.975Z,45.53
2018-12-18T17:16:34.349Z,31.27
2018-12-18T17:19:03.595Z,32.43
2018-12-18T17:21:32.444Z,28.40
2018-12-18T17:24:01.494Z,32.07
2018-12-18T17:26:31.281Z,36.47
2018-12-18T17:29:00.223Z,31.47
2018-12-18T17:31:29.742Z,37.23
2018-12-18T17:33:58.721Z,35.87
2018-12-18T17:36:27.945Z,39.30
2018-12-18T17:38:56.864Z,46.47
2018-12-18T17:41:25.879Z,49.97
2018-12-18T17:43:55.144Z,58.10
2018-12-18T17:46:23.994Z,56.33
2018-12-18T17:48:52.959Z,57.80
2018-12-18T17:51:21.783Z,58.07
2018-12-18T17:53:50.849Z,48.03
2018-12-18T17:56:19.757Z,42.37
2018-12-18T17:58:48.663Z,41.77
2018-12-18T18:01:17.697Z,41.10
2018-12-18T18:03:46.725Z,42.47
2018-12-18T18:06:15.777Z,50.90
2018-12-18T18:08:44.717Z,41.80
2018-12-18T18:11:13.746Z,44.17
2018-12-18T18:13:42.581Z,46.33
2018-12-18T18:16:11.505Z,30.83
2018-12-18T18:18:40.634Z,36.63
2018-12-18T18:21:09.462Z,32.93
2018-12-18T18:23:38.601Z,46.57
2018-12-18T18:26:09.125Z,31.90
2018-12-18T18:28:38.645Z,29.37
2018-12-18T18:31:07.671Z,41.00
2018-12-18T18:33:36.900Z,38.27
2018-12-18T18:36:05.854Z,51.70
2018-12-18T18:38:42.261Z,30.10
2018-12-18T18:41:11.086Z,43.67
2018-12-18T18:43:40.290Z,50.20
2018-12-18T18:46:09.209Z,38.17
2018-12-18T18:48:38.190Z,25.63
2018-12-18T18:51:07.172Z,29.33
2018-12-18T18:53:36.650Z,23.47
2018-12-18T18:56:06.264Z,26.70
2018-12-18T18:58:35.075Z,25.53
2018-12-18T19:01:04.248Z,24.37
2018-12-18T19:03:33.171Z,26.20
2018-12-18T19:06:02.657Z,24.03
2018-12-18T19:08:31.691Z,22.43
2018-12-18T19:11:00.676Z,23.53
2018-12-18T19:13:30.494Z,23.90
2018-12-18T19:15:59.533Z,23.23
2018-12-18T19:18:28.697Z,25.27
2018-12-18T19:20:57.661Z,24.53
2018-12-18T19:23:26.818Z,18.73
2018-12-18T19:25:55.668Z,15.57
2018-12-18T19:28:24.593Z,19.77
2018-12-18T19:30:54.005Z,24.33
2018-12-18T19:33:22.979Z,20.30
2018-12-18T19:35:51.885Z,19.73
2018-12-18T19:38:20.797Z,16.37
2018-12-18T19:40:49.841Z,18.73
2018-12-18T19:43:18.661Z,16.53
2018-12-18T19:45:47.628Z,20.50
2018-12-18T19:48:16.596Z,17.40
2018-12-18T19:50:45.617Z,19.53
2018-12-18T19:53:14.646Z,18.67
2018-12-18T19:55:43.581Z,19.47
2018-12-18T19:58:12.504Z,19.70
2018-12-18T20:00:41.413Z,19.57
2018-12-18T20:03:10.336Z,22.77
2018-12-18T20:05:39.277Z,22.83
2018-12-18T20:08:10.167Z,21.73
2018-12-18T20:10:40.181Z,20.77
2018-12-18T20:13:09.093Z,18.00
2018-12-18T20:15:38.177Z,21.60
2018-12-18T20:18:07.109Z,19.30
2018-12-18T20:20:36.034Z,21.00
2018-12-18T20:23:05.057Z,20.40
2018-12-18T20:25:34.277Z,17.20
2018-12-18T20:28:03.217Z,18.20
2018-12-18T20:30:33.356Z,19.20
2018-12-18T20:33:02.813Z,20.53
2018-12-18T20:35:31.993Z,19.77
2018-12-18T20:38:00.883Z,18.03
2018-12-18T20:40:29.790Z,18.37
2018-12-18T20:42:58.761Z,20.17
2018-12-18T20:45:27.677Z,18.70
2018-12-18T20:47:56.678Z,17.33
2018-12-18T20:50:25.729Z,15.07
2018-12-18T20:52:54.666Z,19.43
2018-12-18T20:55:24.006Z,17.70
2018-12-18T20:57:52.817Z,21.23
2018-12-18T21:00:21.829Z,16.90
2018-12-18T21:02:50.821Z,14.73
2018-12-18T21:05:19.629Z,18.07
2018-12-18T21:07:49.288Z,17.30
2018-12-18T21:10:18.286Z,18.87
2018-12-18T21:12:47.286Z,18.03
2018-12-18T21:15:16.305Z,17.17
2018-12-18T21:17:45.219Z,19.10
2018-12-18T21:20:14.230Z,19.37
2018-12-18T21:22:43.209Z,18.70
2018-12-18T21:25:18.754Z,18.23
2018-12-18T21:27:43.064Z,16.20
2018-12-18T21:30:11.937Z,19.10
2018-12-18T21:32:40.846Z,17.80
2018-12-18T21:35:09.969Z,15.07
2018-12-18T21:37:38.894Z,17.20
2018-12-18T21:40:07.917Z,15.70
2018-12-18T21:42:36.957Z,17.57
2018-12-18T21:45:06.128Z,18.47
2018-12-18T21:47:35.149Z,15.60
2018-12-18T21:50:05.576Z,12.30
2018-12-18T21:52:34.468Z,16.13
2018-12-18T21:55:03.445Z,13.30
2018-12-18T21:57:32.358Z,11.97
2018-12-18T22:00:01.239Z,17.57
2018-12-18T22:02:30.219Z,13.60
2018-12-18T22:04:59.144Z,13.70
2018-12-18T22:07:28.057Z,13.97
2018-12-18T22:09:57.364Z,14.83
2018-12-18T22:12:26.141Z,14.03
2018-12-18T22:14:54.928Z,12.73
2018-12-18T22:17:23.817Z,13.13
2018-12-18T22:19:52.742Z,14.57
2018-12-18T22:22:21.616Z,13.27
2018-12-18T22:24:50.425Z,14.70
2018-12-18T22:27:19.326Z,15.37
2018-12-18T22:29:48.257Z,13.10
2018-12-18T22:32:17.092Z,12.17
2018-12-18T22:34:46.009Z,12.03
2018-12-18T22:37:14.973Z,12.13
2018-12-18T22:39:43.902Z,12.90
2018-12-18T22:42:12.919Z,13.23
2018-12-18T22:44:41.943Z,12.23
2018-12-18T22:47:10.854Z,14.80
2018-12-18T22:49:39.910Z,14.30
2018-12-18T22:52:08.718Z,15.20
2018-12-18T22:54:37.657Z,13.10
2018-12-18T22:57:07.085Z,12.27
2018-12-18T22:59:35.950Z,15.30
2018-12-18T23:02:10.703Z,11.13
2018-12-18T23:04:39.779Z,14.37
2018-12-18T23:07:08.799Z,13.23
2018-12-18T23:09:37.629Z,12.80
2018-12-18T23:12:06.471Z,16.73
2018-12-18T23:14:35.509Z,15.37
2018-12-18T23:17:04.788Z,15.57
2018-12-18T23:19:33.735Z,17.53
2018-12-18T23:22:02.829Z,14.53
2018-12-18T23:24:31.932Z,11.57
2018-12-18T23:27:00.846Z,12.23
2018-12-18T23:29:29.680Z,14.63
2018-12-18T23:31:58.709Z,14.00
2018-12-18T23:34:32.931Z,14.50
2018-12-18T23:36:58.802Z,13.67
2018-12-18T23:39:27.755Z,14.60
2018-12-18T23:41:56.866Z,12.50
2018-12-18T23:44:25.893Z,15.57
2018-12-18T23:46:54.807Z,15.17
2018-12-18T23:49:23.650Z,15.90
2018-12-18T23:51:52.702Z,12.17
2018-12-18T23:54:21.512Z,14.13
2018-12-18T23:56:50.449Z,15.40
2018-12-18T23:59:19.464Z,15.07
